createdAt,value
2023-05-06T00:02:09.089Z,0.70
2023-05-06T00:04:36.244Z,0.22
2023-05-06T00:07:03.099Z,0.28
2023-05-06T00:09:29.872Z,0.35
2023-05-06T00:11:57.166Z,0.63
2023-05-06T00:14:24.004Z,0.32
2023-05-06T00:16:51.134Z,0.40
2023-05-06T00:19:17.902Z,0.20
2023-05-06T00:21:44.808Z,0.25
2023-05-06T00:24:12.287Z,0.22
2023-05-06T00:26:39.209Z,0.20
2023-05-06T00:29:06.132Z,0.50
2023-05-06T00:31:36.393Z,0.38
2023-05-06T00:34:04.063Z,0.90
2023-05-06T00:36:31.645Z,0.25
2023-05-06T00:38:58.721Z,0.68
2023-05-06T00:41:26.300Z,0.50
2023-05-06T00:43:52.968Z,0.30
2023-05-06T00:46:19.808Z,0.20
2023-05-06T00:48:46.962Z,0.40
2023-05-06T00:51:14.028Z,0.35
2023-05-06T00:53:41.610Z,0.55
2023-05-06T00:56:08.960Z,0.30
2023-05-06T00:58:37.013Z,0.40
2023-05-06T01:01:03.757Z,0.40
2023-05-06T01:03:31.430Z,0.20
2023-05-06T01:06:24.698Z,0.43
2023-05-06T01:09:30.652Z,0.30
2023-05-06T01:12:17.151Z,0.20
2023-05-06T01:14:59.980Z,0.15
2023-05-06T01:17:33.505Z,0.32
2023-05-06T01:20:01.920Z,0.20
2023-05-06T01:22:30.535Z,0.50
2023-05-06T01:24:57.310Z,0.20
2023-05-06T01:27:24.711Z,0.30
2023-05-06T01:29:53.620Z,0.30
2023-05-06T01:32:54.827Z,0.20
2023-05-06T01:36:03.457Z,0.20
2023-05-06T01:38:36.299Z,0.45
2023-05-06T01:41:04.048Z,0.90
2023-05-06T01:43:38.147Z,0.60
2023-05-06T01:46:06.762Z,0.47
2023-05-06T01:48:37.107Z,0.57
2023-05-06T01:51:04.516Z,0.75
2023-05-06T01:53:33.146Z,0.93
2023-05-06T01:56:00.897Z,1.00
2023-05-06T01:58:27.762Z,1.27
2023-05-06T02:00:54.412Z,0.90
2023-05-06T02:03:21.354Z,0.65
2023-05-06T02:05:48.650Z,0.88
2023-05-06T02:08:15.623Z,0.82
2023-05-06T02:10:44.298Z,0.82
2023-05-06T02:13:11.941Z,0.80
2023-05-06T02:15:38.983Z,1.10
2023-05-06T02:18:08.363Z,0.80
2023-05-06T02:20:35.059Z,0.68
2023-05-06T02:23:01.652Z,0.60
2023-05-06T02:25:29.340Z,0.70
2023-05-06T02:27:56.016Z,1.27
2023-05-06T02:30:22.659Z,0.63
2023-05-06T02:32:49.430Z,0.77
2023-05-06T02:35:16.098Z,0.70
2023-05-06T02:37:43.037Z,1.00
2023-05-06T02:40:10.062Z,0.65
2023-05-06T02:42:36.904Z,0.90
2023-05-06T02:45:04.143Z,0.68
2023-05-06T02:47:32.387Z,1.02
2023-05-06T02:49:59.134Z,1.20
2023-05-06T02:52:25.859Z,0.65
2023-05-06T02:54:52.679Z,0.80
2023-05-06T02:57:19.508Z,1.25
2023-05-06T02:59:46.160Z,1.27
2023-05-06T03:02:12.735Z,0.93
2023-05-06T03:04:39.454Z,0.75
2023-05-06T03:07:06.382Z,1.38
2023-05-06T03:09:33.820Z,0.82
2023-05-06T03:12:00.653Z,1.60
2023-05-06T03:14:27.368Z,1.10
2023-05-06T03:16:54.116Z,1.40
2023-05-06T03:19:21.874Z,1.13
2023-05-06T03:21:49.246Z,1.27
2023-05-06T03:24:18.490Z,1.40
2023-05-06T03:26:45.375Z,1.30
2023-05-06T03:29:13.148Z,1.45
2023-05-06T03:31:42.017Z,1.15
2023-05-06T03:34:09.660Z,1.08
2023-05-06T03:36:36.429Z,1.20
2023-05-06T03:39:03.287Z,1.42
2023-05-06T03:41:32.460Z,1.27
2023-05-06T03:43:59.692Z,1.67
2023-05-06T03:46:27.615Z,1.60
2023-05-06T03:48:54.489Z,1.67
2023-05-06T03:51:21.231Z,1.52
2023-05-06T03:53:48.278Z,1.70
2023-05-06T03:56:18.081Z,1.63
2023-05-06T03:58:46.870Z,1.42
2023-05-06T04:01:14.361Z,1.73
2023-05-06T04:03:41.151Z,1.38
2023-05-06T04:06:08.254Z,1.33
2023-05-06T04:08:34.953Z,1.67
2023-05-06T04:11:10.280Z,2.05
2023-05-06T04:13:37.679Z,1.90
2023-05-06T04:16:10.770Z,2.47
2023-05-06T04:18:41.073Z,2.67
2023-05-06T04:21:13.595Z,2.33
2023-05-06T04:23:42.747Z,2.95
2023-05-06T04:26:13.839Z,2.28
2023-05-06T04:28:42.215Z,2.35
2023-05-06T04:31:10.778Z,2.72
2023-05-06T04:33:44.926Z,2.60
2023-05-06T04:36:15.782Z,3.00
2023-05-06T04:38:53.255Z,3.15
2023-05-06T04:41:20.603Z,3.40
2023-05-06T04:43:47.462Z,3.45
2023-05-06T04:46:19.603Z,3.53
2023-05-06T04:48:47.229Z,3.53
2023-05-06T04:51:15.271Z,4.07
2023-05-06T04:53:41.988Z,4.03
2023-05-06T04:56:09.257Z,3.60
2023-05-06T04:58:39.962Z,3.97
2023-05-06T05:01:08.989Z,4.30
2023-05-06T05:03:35.895Z,4.07
2023-05-06T05:06:04.194Z,4.63
2023-05-06T05:08:31.361Z,4.45
2023-05-06T05:10:58.092Z,4.15
2023-05-06T05:13:27.282Z,4.50
2023-05-06T05:15:55.828Z,4.28
2023-05-06T05:20:55.584Z,4.57
2023-05-06T05:23:22.680Z,3.97
2023-05-06T05:25:49.508Z,4.03
2023-05-06T05:28:16.667Z,4.18
2023-05-06T05:30:43.743Z,3.60
2023-05-06T05:33:10.743Z,4.30
2023-05-06T05:35:38.329Z,3.75
2023-05-06T05:38:05.586Z,3.80
2023-05-06T05:40:32.356Z,3.10
2023-05-06T05:42:59.283Z,3.25
2023-05-06T05:45:34.663Z,3.42
2023-05-06T05:48:01.412Z,2.83
2023-05-06T05:50:28.173Z,3.30
2023-05-06T05:52:56.872Z,2.75
2023-05-06T05:55:24.475Z,2.70
2023-05-06T05:57:51.927Z,2.95
2023-05-06T06:00:21.193Z,2.47
2023-05-06T06:02:51.021Z,2.20
2023-05-06T06:05:20.430Z,2.38
2023-05-06T06:07:47.380Z,2.38
2023-05-06T06:10:15.371Z,2.58
2023-05-06T06:12:44.695Z,2.42
2023-05-06T06:15:14.625Z,3.65
2023-05-06T06:17:43.159Z,2.90
2023-05-06T06:20:12.129Z,2.53
2023-05-06T06:22:39.274Z,2.72
2023-05-06T06:25:06.482Z,3.65
2023-05-06T06:27:39.082Z,2.88
2023-05-06T06:30:07.787Z,9.80
2023-05-06T06:32:34.527Z,3.15
2023-05-06T06:35:01.928Z,3.03
2023-05-06T06:37:28.739Z,5.85
2023-05-06T06:39:55.503Z,3.10
2023-05-06T06:42:22.209Z,5.45
2023-05-06T06:44:59.275Z,3.10
2023-05-06T06:47:26.068Z,3.97
2023-05-06T06:49:52.738Z,3.00
2023-05-06T06:52:19.350Z,3.13
2023-05-06T06:54:46.065Z,3.28
2023-05-06T06:57:12.811Z,3.35
2023-05-06T06:59:39.568Z,3.38
2023-05-06T07:02:06.780Z,3.28
2023-05-06T07:04:33.533Z,2.80
2023-05-06T07:07:00.529Z,2.88
2023-05-06T07:09:30.478Z,3.38
2023-05-06T07:11:58.645Z,3.60
2023-05-06T07:14:25.937Z,3.67
2023-05-06T07:16:52.844Z,3.40
2023-05-06T07:19:19.637Z,3.78
2023-05-06T07:21:46.501Z,3.58
2023-05-06T07:24:13.222Z,3.75
2023-05-06T07:26:41.263Z,2.78
2023-05-06T07:29:07.905Z,3.35
2023-05-06T07:31:34.901Z,3.25
2023-05-06T07:34:01.828Z,3.38
2023-05-06T07:36:29.172Z,3.15
2023-05-06T07:38:56.943Z,2.92
2023-05-06T07:41:24.324Z,3.28
2023-05-06T07:43:51.013Z,2.70
2023-05-06T07:46:18.055Z,2.38
2023-05-06T07:48:44.781Z,2.83
2023-05-06T07:51:11.469Z,2.22
2023-05-06T07:53:40.581Z,2.55
2023-05-06T07:56:09.373Z,2.92
2023-05-06T07:58:39.268Z,2.20
2023-05-06T08:01:09.873Z,2.78
2023-05-06T08:03:36.916Z,2.47
2023-05-06T08:06:04.498Z,1.92
2023-05-06T08:08:31.319Z,1.60
2023-05-06T08:10:58.828Z,2.15
2023-05-06T08:13:26.122Z,1.85
2023-05-06T08:15:53.222Z,1.70
2023-05-06T08:18:22.760Z,1.20
2023-05-06T08:21:11.155Z,1.25
2023-05-06T08:23:40.854Z,1.30
2023-05-06T08:26:08.817Z,1.23
2023-05-06T08:28:38.731Z,1.48
2023-05-06T08:31:05.668Z,1.08
2023-05-06T08:33:38.294Z,0.55
2023-05-06T08:36:05.301Z,0.55
2023-05-06T08:38:32.040Z,0.55
2023-05-06T08:41:04.549Z,0.50
2023-05-06T08:43:33.692Z,1.10
2023-05-06T08:46:20.944Z,0.60
2023-05-06T08:49:10.006Z,0.52
2023-05-06T08:51:43.465Z,0.70
2023-05-06T08:54:12.742Z,0.50
2023-05-06T08:57:07.175Z,0.50
2023-05-06T08:59:36.977Z,0.10
2023-05-06T09:02:14.083Z,0.13
2023-05-06T09:04:41.660Z,0.20
2023-05-06T09:07:08.448Z,0.80
2023-05-06T09:09:35.966Z,0.80
2023-05-06T09:12:02.914Z,0.38
2023-05-06T09:14:29.903Z,0.20
2023-05-06T09:16:56.519Z,0.20
2023-05-06T09:19:24.084Z,0.22
2023-05-06T09:21:51.699Z,0.00
2023-05-06T09:24:18.884Z,0.10
2023-05-06T09:26:46.737Z,0.20
2023-05-06T09:29:32.337Z,0.10
2023-05-06T09:32:05.994Z,0.03
2023-05-06T09:34:33.542Z,0.22
2023-05-06T09:37:01.203Z,0.20
2023-05-06T09:39:28.034Z,0.10
2023-05-06T09:41:55.141Z,1.60
2023-05-06T09:44:24.046Z,0.30
2023-05-06T09:49:17.842Z,0.20
2023-05-06T09:51:47.843Z,0.32
2023-05-06T09:54:17.339Z,0.10
2023-05-06T09:56:44.437Z,0.00
2023-05-06T09:59:12.294Z,0.00
2023-05-06T10:01:39.899Z,0.17
2023-05-06T10:04:10.010Z,0.08
2023-05-06T10:06:40.148Z,0.00
2023-05-06T10:09:10.938Z,0.10
2023-05-06T10:11:38.825Z,0.32
2023-05-06T10:14:06.855Z,0.07
2023-05-06T10:16:36.074Z,0.10
2023-05-06T10:19:04.697Z,0.38
2023-05-06T10:21:34.325Z,0.10
2023-05-06T10:24:07.351Z,0.30
2023-05-06T10:26:36.890Z,0.10
2023-05-06T10:29:09.314Z,0.00
2023-05-06T10:31:39.177Z,0.20
2023-05-06T10:37:11.771Z,0.10
2023-05-06T10:39:42.200Z,0.10
2023-05-06T10:42:11.260Z,0.28
2023-05-06T10:45:02.393Z,0.17
2023-05-06T10:47:57.360Z,0.08
2023-05-06T10:50:25.850Z,0.10
2023-05-06T10:55:27.547Z,0.00
2023-05-06T10:58:02.329Z,0.00
2023-05-06T11:00:33.915Z,0.00
2023-05-06T11:03:23.649Z,0.00
2023-05-06T11:05:52.400Z,0.15
2023-05-06T11:08:24.347Z,0.40
2023-05-06T11:10:51.902Z,0.00
2023-05-06T11:13:37.270Z,0.10
2023-05-06T11:16:04.333Z,0.00
2023-05-06T11:18:32.334Z,0.03
2023-05-06T11:21:08.365Z,0.00
2023-05-06T11:23:49.496Z,0.00
2023-05-06T11:26:19.775Z,0.38
2023-05-06T11:28:53.188Z,0.10
2023-05-06T11:31:22.182Z,0.10
2023-05-06T11:34:15.775Z,0.00
2023-05-06T11:40:18.120Z,0.10
2023-05-06T11:43:12.609Z,0.00
2023-05-06T11:45:49.415Z,0.00
2023-05-06T11:48:28.770Z,1.95
2023-05-06T11:50:58.502Z,0.00
2023-05-06T11:53:25.394Z,0.10
2023-05-06T11:55:54.881Z,0.00
2023-05-06T11:58:31.841Z,0.00
2023-05-06T12:01:07.748Z,0.10
2023-05-06T12:04:01.116Z,0.20
2023-05-06T12:06:35.097Z,0.08
2023-05-06T12:11:57.614Z,0.00
2023-05-06T12:14:27.836Z,1.65
2023-05-06T12:16:56.145Z,0.00
2023-05-06T12:19:24.550Z,0.00
2023-05-06T12:21:54.770Z,0.10
2023-05-06T12:24:30.062Z,0.05
2023-05-06T12:26:56.828Z,0.00
2023-05-06T12:29:23.541Z,0.28
2023-05-06T12:32:08.144Z,0.10
2023-05-06T12:34:42.098Z,0.20
2023-05-06T12:37:15.189Z,0.20
2023-05-06T12:39:41.803Z,0.10
2023-05-06T12:42:19.771Z,0.20
2023-05-06T12:44:47.034Z,0.30
2023-05-06T12:47:22.157Z,0.10
2023-05-06T12:49:59.456Z,0.00
2023-05-06T12:52:28.687Z,0.00
2023-05-06T12:54:57.712Z,0.03
2023-05-06T12:59:51.057Z,0.30
2023-05-06T13:02:18.479Z,0.10
2023-05-06T13:04:49.214Z,0.10
2023-05-06T13:07:16.035Z,0.10
2023-05-06T13:09:43.491Z,0.35
2023-05-06T13:12:10.405Z,0.30
2023-05-06T13:14:40.554Z,0.08
2023-05-06T13:17:07.899Z,0.10
2023-05-06T13:19:35.126Z,0.20
2023-05-06T13:22:05.189Z,0.10
2023-05-06T13:24:32.338Z,0.10
2023-05-06T13:27:04.372Z,0.20
2023-05-06T13:29:33.036Z,0.20
2023-05-06T13:32:00.808Z,0.00
2023-05-06T13:34:30.059Z,0.10
2023-05-06T13:39:23.654Z,0.20
2023-05-06T13:41:52.289Z,0.20
2023-05-06T13:44:20.763Z,0.10
2023-05-06T13:46:48.312Z,0.15
2023-05-06T13:49:15.270Z,0.20
2023-05-06T13:51:41.939Z,0.08
2023-05-06T13:54:08.639Z,0.10
2023-05-06T13:56:35.376Z,0.00
2023-05-06T13:59:02.155Z,0.15
2023-05-06T14:01:28.939Z,0.10
2023-05-06T14:03:55.668Z,0.10
2023-05-06T14:06:22.368Z,0.20
2023-05-06T14:08:49.084Z,0.00
2023-05-06T14:11:15.789Z,0.00
2023-05-06T14:13:42.460Z,0.10
2023-05-06T14:16:09.210Z,0.15
2023-05-06T14:18:36.009Z,0.10
2023-05-06T14:21:03.569Z,0.00
2023-05-06T14:23:30.406Z,0.20
2023-05-06T14:25:57.327Z,0.00
2023-05-06T14:28:24.149Z,0.15
2023-05-06T14:30:51.471Z,0.10
2023-05-06T14:33:18.341Z,0.20
2023-05-06T14:35:46.174Z,0.38
2023-05-06T14:38:12.915Z,0.10
2023-05-06T14:40:43.078Z,0.00
2023-05-06T14:43:10.953Z,0.00
2023-05-06T14:45:37.682Z,0.30
2023-05-06T14:48:05.066Z,0.10
2023-05-06T14:50:32.118Z,0.10
2023-05-06T14:52:58.841Z,0.25
2023-05-06T14:55:25.920Z,0.90
2023-05-06T14:57:52.723Z,0.70
2023-05-06T15:00:20.372Z,1.10
2023-05-06T15:02:47.319Z,0.30
2023-05-06T15:05:14.441Z,0.32
2023-05-06T15:07:41.873Z,0.40
2023-05-06T15:10:09.001Z,0.40
2023-05-06T15:12:37.302Z,0.10
2023-05-06T15:15:05.252Z,0.40
2023-05-06T15:17:32.748Z,0.10
2023-05-06T15:19:59.970Z,0.50
2023-05-06T15:22:27.124Z,0.45
2023-05-06T15:24:53.930Z,0.28
2023-05-06T15:27:20.844Z,0.00
2023-05-06T15:29:47.595Z,0.10
2023-05-06T15:32:15.056Z,0.00
2023-05-06T15:34:43.861Z,0.10
2023-05-06T15:37:11.094Z,0.10
2023-05-06T15:39:37.878Z,0.10
2023-05-06T15:42:04.889Z,0.10
2023-05-06T15:44:33.420Z,0.00
2023-05-06T15:47:00.241Z,0.00
2023-05-06T15:49:49.327Z,0.00
2023-05-06T15:52:13.980Z,0.35
2023-05-06T15:54:41.228Z,0.20
2023-05-06T15:57:08.138Z,0.60
2023-05-06T15:59:34.884Z,0.88
2023-05-06T16:02:26.279Z,0.47
2023-05-06T16:04:48.490Z,0.85
2023-05-06T16:07:15.700Z,0.30
2023-05-06T16:09:43.810Z,0.20
2023-05-06T16:12:10.580Z,0.47
2023-05-06T16:14:38.528Z,0.20
2023-05-06T16:17:05.290Z,0.10
2023-05-06T16:19:35.422Z,0.00
2023-05-06T16:22:02.918Z,0.30
2023-05-06T16:24:31.466Z,0.25
2023-05-06T16:26:58.394Z,0.07
2023-05-06T16:29:25.263Z,0.13
2023-05-06T16:31:52.200Z,0.00
2023-05-06T16:34:18.907Z,0.17
2023-05-06T16:36:45.988Z,0.10
2023-05-06T16:39:12.847Z,0.10
2023-05-06T16:41:39.689Z,0.10
2023-05-06T16:44:06.360Z,0.10
2023-05-06T16:46:33.292Z,0.50
2023-05-06T16:49:00.323Z,0.77
2023-05-06T16:51:27.349Z,0.40
2023-05-06T16:53:54.127Z,0.30
2023-05-06T16:56:20.874Z,0.20
2023-05-06T16:58:47.934Z,0.35
2023-05-06T17:01:14.838Z,0.30
2023-05-06T17:03:41.793Z,0.20
2023-05-06T17:06:08.895Z,0.38
2023-05-06T17:08:37.201Z,0.32
2023-05-06T17:11:07.117Z,0.27
2023-05-06T17:13:34.712Z,1.13
2023-05-06T17:16:01.531Z,0.40
2023-05-06T17:18:28.348Z,0.40
2023-05-06T17:20:56.996Z,0.75
2023-05-06T17:23:24.445Z,0.90
2023-05-06T17:25:51.501Z,0.77
2023-05-06T17:28:19.052Z,0.82
2023-05-06T17:30:46.464Z,0.50
2023-05-06T17:33:13.526Z,0.80
2023-05-06T17:35:40.255Z,3.35
2023-05-06T17:38:07.732Z,0.57
2023-05-06T17:40:34.561Z,0.20
2023-05-06T17:43:01.598Z,0.93
2023-05-06T17:45:28.595Z,0.80
2023-05-06T17:47:56.398Z,0.40
2023-05-06T17:50:23.470Z,0.80
2023-05-06T17:52:50.909Z,1.50
2023-05-06T17:55:17.946Z,1.17
2023-05-06T17:57:44.720Z,0.65
2023-05-06T18:00:14.102Z,3.15
2023-05-06T18:02:42.357Z,3.25
2023-05-06T18:05:09.623Z,2.10
2023-05-06T18:07:36.748Z,1.30
2023-05-06T18:10:03.723Z,0.95
2023-05-06T18:12:31.262Z,0.80
2023-05-06T18:14:58.141Z,0.95
2023-05-06T18:17:24.898Z,1.52
2023-05-06T18:19:52.815Z,0.88
2023-05-06T18:22:23.595Z,0.60
2023-05-06T18:24:54.997Z,1.23
2023-05-06T18:27:22.634Z,0.65
2023-05-06T18:29:49.399Z,0.80
2023-05-06T18:32:16.007Z,0.47
2023-05-06T18:34:42.682Z,0.82
2023-05-06T18:37:09.376Z,0.85
2023-05-06T18:39:41.518Z,1.23
2023-05-06T18:42:08.594Z,1.55
2023-05-06T18:44:35.415Z,1.50
2023-05-06T18:47:02.159Z,1.58
2023-05-06T18:49:30.699Z,1.33
2023-05-06T18:51:57.452Z,1.10
2023-05-06T18:54:24.525Z,1.35
2023-05-06T18:56:54.825Z,0.88
2023-05-06T18:59:21.906Z,1.08
2023-05-06T19:01:48.550Z,0.93
2023-05-06T19:04:15.359Z,1.23
2023-05-06T19:06:42.154Z,0.88
2023-05-06T19:09:08.895Z,2.05
2023-05-06T19:11:35.753Z,0.98
2023-05-06T19:14:02.789Z,1.35
2023-05-06T19:16:29.480Z,2.17
2023-05-06T19:18:56.235Z,1.48
2023-05-06T19:21:23.098Z,0.70
2023-05-06T19:23:50.113Z,0.88
2023-05-06T19:26:16.782Z,0.60
2023-05-06T19:28:43.652Z,0.90
2023-05-06T19:31:11.369Z,0.95
2023-05-06T19:33:38.925Z,0.63
2023-05-06T19:36:06.213Z,1.50
2023-05-06T19:38:32.913Z,2.40
2023-05-06T19:40:59.652Z,2.85
2023-05-06T19:43:26.362Z,2.83
2023-05-06T19:45:53.139Z,3.80
2023-05-06T19:48:19.805Z,1.80
2023-05-06T19:50:46.530Z,1.45
2023-05-06T19:53:13.124Z,2.25
2023-05-06T19:55:39.818Z,1.27
2023-05-06T19:58:06.514Z,1.98
2023-05-06T20:00:33.154Z,2.10
2023-05-06T20:03:00.493Z,1.10
2023-05-06T20:05:31.985Z,0.75
2023-05-06T20:08:02.076Z,1.10
2023-05-06T20:10:29.168Z,1.10
2023-05-06T20:12:57.658Z,1.33
2023-05-06T20:15:25.227Z,2.20
2023-05-06T20:17:51.929Z,1.33
2023-05-06T20:20:19.375Z,1.85
2023-05-06T20:22:46.086Z,1.17
2023-05-06T20:25:16.194Z,1.27
2023-05-06T20:27:43.809Z,1.38
2023-05-06T20:30:11.106Z,2.00
2023-05-06T20:32:39.439Z,0.95
2023-05-06T20:35:06.516Z,1.50
2023-05-06T20:37:36.832Z,1.70
2023-05-06T20:40:05.798Z,1.83
2023-05-06T20:42:32.438Z,2.47
2023-05-06T20:44:59.769Z,1.95
2023-05-06T20:47:26.999Z,3.05
2023-05-06T20:49:56.775Z,1.33
2023-05-06T20:52:23.409Z,1.70
2023-05-06T20:54:50.033Z,0.88
2023-05-06T20:57:17.347Z,1.05
2023-05-06T20:59:44.390Z,0.93
2023-05-06T21:02:11.537Z,0.73
2023-05-06T21:04:38.374Z,0.90
2023-05-06T21:07:05.257Z,0.80
2023-05-06T21:09:31.860Z,1.35
2023-05-06T21:11:59.049Z,1.13
2023-05-06T21:14:26.958Z,0.93
2023-05-06T21:16:53.848Z,0.98
2023-05-06T21:19:20.943Z,1.70
2023-05-06T21:21:48.299Z,0.75
2023-05-06T21:24:15.592Z,0.70
2023-05-06T21:26:42.385Z,1.13
2023-05-06T21:29:09.112Z,1.58
2023-05-06T21:31:36.177Z,1.20
2023-05-06T21:34:04.292Z,1.55
2023-05-06T21:36:31.236Z,1.23
2023-05-06T21:39:06.613Z,1.15
2023-05-06T21:41:36.089Z,1.77
2023-05-06T21:44:03.634Z,1.10
2023-05-06T21:46:31.292Z,1.35
2023-05-06T21:48:58.601Z,1.15
2023-05-06T21:51:29.435Z,1.98
2023-05-06T21:53:56.115Z,1.70
2023-05-06T21:56:22.990Z,2.40
2023-05-06T21:58:50.311Z,1.90
2023-05-06T22:01:17.630Z,1.75
2023-05-06T22:03:45.139Z,1.48
2023-05-06T22:06:12.693Z,1.50
2023-05-06T22:08:40.501Z,1.77
2023-05-06T22:11:07.523Z,1.25
2023-05-06T22:13:34.274Z,1.50
2023-05-06T22:16:01.122Z,1.33
2023-05-06T22:18:30.003Z,1.10
2023-05-06T22:20:57.821Z,1.20
2023-05-06T22:23:25.272Z,1.20
2023-05-06T22:25:52.152Z,0.80
2023-05-06T22:28:19.852Z,1.15
2023-05-06T22:30:46.626Z,0.75
2023-05-06T22:33:13.263Z,0.88
2023-05-06T22:35:40.028Z,1.30
2023-05-06T22:38:06.784Z,1.88
2023-05-06T22:40:33.480Z,1.63
2023-05-06T22:43:00.353Z,1.48
2023-05-06T22:45:27.218Z,0.90
2023-05-06T22:47:54.093Z,0.60
2023-05-06T22:50:20.839Z,0.85
2023-05-06T22:52:47.739Z,0.60
2023-05-06T22:55:15.071Z,1.27
2023-05-06T22:57:44.959Z,0.73
2023-05-06T23:00:12.769Z,0.50
2023-05-06T23:02:39.820Z,0.63
2023-05-06T23:05:06.711Z,0.70
2023-05-06T23:07:33.481Z,0.40
2023-05-06T23:10:00.633Z,0.40
2023-05-06T23:12:31.753Z,0.70
2023-05-06T23:14:58.344Z,0.32
2023-05-06T23:17:25.585Z,0.40
2023-05-06T23:19:53.628Z,0.73
2023-05-06T23:22:20.701Z,1.70
2023-05-06T23:24:47.362Z,1.90
2023-05-06T23:27:13.982Z,1.10
2023-05-06T23:29:40.672Z,0.52
2023-05-06T23:32:07.573Z,0.80
2023-05-06T23:34:34.264Z,0.93
2023-05-06T23:37:01.114Z,1.10
2023-05-06T23:39:27.932Z,0.70
2023-05-06T23:41:54.623Z,0.77
2023-05-06T23:44:21.432Z,1.60
2023-05-06T23:46:48.248Z,1.08
2023-05-06T23:49:15.243Z,1.25
2023-05-06T23:51:41.981Z,0.73
2023-05-06T23:54:09.075Z,1.35
2023-05-06T23:56:40.914Z,1.10
2023-05-06T23:59:11.243Z,1.30
